Time;durP1;ratioP1;P1;durP2;ratioP2;P2;SDS_P1;SDS_P2;PMS_P1;PMS_P2;Temp;Humidity;BMP_temperature;BMP_pressure;BME280_temperature;BME280_humidity;BME280_pressure;Samples;Min_cycle;Max_cycle;Signal;HPM_P1;HPM_P2
2022/06/02 00:00:10;;;;;;;7.35;4.60;;;;;;;14.48;81.17;99505.06;5111824;28;20687;-79
2022/06/02 00:02:50;;;;;;;4.55;4.15;;;;;;;14.49;81.04;99507.63;5111833;28;20530;-79
2022/06/02 00:05:23;;;;;;;5.85;4.63;;;;;;;14.50;80.82;99506.66;5115539;28;20186;-79
2022/06/02 00:08:01;;;;;;;5.72;4.50;;;;;;;14.59;80.20;99516.81;5115094;28;20284;-78
2022/06/02 00:10:40;;;;;;;6.35;4.40;;;;;;;14.42;81.38;99513.63;5115081;28;20640;-79
2022/06/02 00:13:21;;;;;;;6.15;4.88;;;;;;;14.48;80.74;99518.59;5114864;28;20276;-79
2022/06/02 00:15:53;;;;;;;8.25;4.30;;;;;;;14.51;80.52;99510.22;5115370;28;20180;-79
2022/06/02 00:18:27;;;;;;;7.38;4.68;;;;;;;14.41;81.99;99514.63;5115281;28;20537;-79
2022/06/02 00:21:00;;;;;;;4.75;4.35;;;;;;;14.16;83.46;99509.19;5115036;28;20192;-78
2022/06/02 00:23:50;;;;;;;5.90;5.30;;;;;;;14.35;81.93;99515.94;5114955;28;20187;-80
2022/06/02 00:26:39;;;;;;;5.00;4.50;;;;;;;14.14;83.23;99526.53;5115121;28;20194;-79
2022/06/02 00:29:16;;;;;;;4.68;4.28;;;;;;;14.13;83.67;99532.91;5114859;28;20186;-79
2022/06/02 00:31:52;;;;;;;5.18;4.45;;;;;;;14.33;82.40;99528.72;5114469;28;20193;-79
2022/06/02 00:34:26;;;;;;;4.82;4.38;;;;;;;14.25;82.57;99532.03;5114590;28;20194;-79
2022/06/02 00:37:05;;;;;;;5.35;4.85;;;;;;;14.34;81.96;99536.75;5114799;28;20186;-79
2022/06/02 00:39:34;;;;;;;5.70;4.32;;;;;;;14.21;83.25;99541.34;5114750;28;20666;-79
2022/06/02 00:42:11;;;;;;;6.72;4.85;;;;;;;13.87;86.30;99540.25;5114245;28;20204;-78
2022/06/02 00:44:47;;;;;;;4.40;4.00;;;;;;;13.65;89.13;99538.22;5115011;28;20186;-78
2022/06/02 00:47:32;;;;;;;7.57;4.53;;;;;;;13.62;90.56;99538.47;5114538;28;20633;-79
2022/06/02 00:50:04;;;;;;;5.30;4.80;;;;;;;13.49;91.78;99543.88;5114116;28;20234;-80
2022/06/02 00:52:39;;;;;;;5.20;4.43;;;;;;;13.35;93.34;99545.69;5114211;28;20185;-78
2022/06/02 00:58:25;;;;;;;4.55;4.13;;;;;;;13.32;94.31;99542.38;5031400;28;20626;-78
2022/06/02 01:01:01;;;;;;;4.80;4.40;;;;;;;13.15;95.50;99541.66;5031317;28;20186;-79
2022/06/02 01:03:37;;;;;;;5.25;4.75;;;;;;;13.32;94.65;99550.47;5078300;28;20221;-78
2022/06/02 01:06:23;;;;;;;5.47;4.95;;;;;;;13.22;95.61;99543.94;5114471;28;20275;-79
2022/06/02 01:09:15;;;;;;;4.97;4.57;;;;;;;13.14;96.70;99548.06;5114284;28;20181;-79
2022/06/02 01:11:50;;;;;;;6.05;4.85;;;;;;;13.06;97.27;99539.59;5114002;28;20194;-78
2022/06/02 01:14:32;;;;;;;4.60;4.20;;;;;;;12.88;99.26;99532.75;5113584;28;20621;-78
2022/06/02 01:17:08;;;;;;;5.90;4.85;;;;;;;12.88;99.34;99540.88;5113793;28;20184;-78
2022/06/02 01:20:03;;;;;;;5.20;4.80;;;;;;;12.81;100.00;99543.13;5114193;28;20188;-79
2022/06/02 01:22:59;;;;;;;5.47;4.97;;;;;;;12.72;100.00;99541.06;5113015;28;20191;-78
2022/06/02 01:25:54;;;;;;;5.13;4.70;;;;;;;12.67;100.00;99535.97;5114079;28;20191;-78
2022/06/02 01:28:43;;;;;;;7.00;4.90;;;;;;;12.63;100.00;99541.69;5113641;28;20509;-79
2022/06/02 01:31:18;;;;;;;5.55;5.00;;;;;;;12.60;100.00;99542.75;5113670;28;20599;-78
2022/06/02 01:33:53;;;;;;;5.50;4.93;;;;;;;12.59;100.00;99549.09;5113792;28;20184;-78
2022/06/02 01:36:26;;;;;;;6.10;5.30;;;;;;;12.54;100.00;99543.16;5113757;28;20661;-79
2022/06/02 01:39:05;;;;;;;8.48;4.65;;;;;;;12.58;100.00;99547.38;5113596;28;20207;-78
2022/06/02 01:41:37;;;;;;;6.30;5.70;;;;;;;12.68;100.00;99553.03;5113411;28;20184;-78
2022/06/02 01:44:15;;;;;;;5.05;4.55;;;;;;;12.49;100.00;99548.88;5113123;28;20636;-79
2022/06/02 01:46:46;;;;;;;6.03;5.43;;;;;;;12.46;100.00;99548.22;5112593;28;20202;-79
2022/06/02 01:49:32;;;;;;;5.43;4.80;;;;;;;12.39;100.00;99546.88;5113487;28;20629;-78
2022/06/02 01:52:25;;;;;;;9.43;5.63;;;;;;;12.21;100.00;99555.25;5112706;28;20184;-78
2022/06/02 01:55:13;;;;;;;5.60;5.10;;;;;;;12.17;100.00;99563.66;5100083;28;20199;-79
2022/06/02 01:57:54;;;;;;;6.10;5.50;;;;;;;12.13;100.00;99557.56;5112932;28;20204;-79
2022/06/02 02:00:23;;;;;;;7.28;5.18;;;;;;;12.10;100.00;99560.47;5112903;28;20179;-79
2022/06/02 02:03:02;;;;;;;6.10;5.50;;;;;;;12.11;100.00;99578.38;5112881;28;20191;-78
2022/06/02 02:05:50;;;;;;;5.45;4.90;;;;;;;12.15;100.00;99577.22;5113415;28;20186;-78
2022/06/02 02:08:30;;;;;;;6.45;4.97;;;;;;;12.22;100.00;99575.00;5111338;28;20183;-79
2022/06/02 02:11:13;;;;;;;5.22;4.72;;;;;;;12.18;100.00;99577.03;5112682;28;20648;-79
2022/06/02 02:13:51;;;;;;;6.05;5.45;;;;;;;11.97;100.00;99579.28;5112602;28;20199;-78
2022/06/02 02:16:29;;;;;;;6.45;5.70;;;;;;;11.68;100.00;99576.56;5112594;28;20189;-79
2022/06/02 02:19:12;;;;;;;6.57;5.88;;;;;;;11.60;100.00;99576.19;5100844;28;20199;-79
2022/06/02 02:21:49;;;;;;;6.13;5.53;;;;;;;11.62;100.00;99573.38;5112441;28;20190;-78
2022/06/02 02:24:28;;;;;;;6.55;5.65;;;;;;;11.53;100.00;99573.97;5112108;28;20191;-79
2022/06/02 02:27:01;;;;;;;6.72;5.65;;;;;;;11.50;100.00;99571.47;5112179;28;20191;-79
2022/06/02 02:29:38;;;;;;;9.10;5.30;;;;;;;11.50;100.00;99577.72;5112954;28;20197;-78
2022/06/02 02:32:14;;;;;;;6.13;5.57;;;;;;;11.49;100.00;99573.31;5112929;28;20620;-77
2022/06/02 02:34:51;;;;;;;6.63;5.72;;;;;;;11.37;100.00;99588.38;5112335;28;20186;-78
2022/06/02 02:37:22;;;;;;;6.50;5.40;;;;;;;11.40;100.00;99587.38;5112174;28;20246;-79
2022/06/02 02:39:55;;;;;;;6.20;5.60;;;;;;;11.30;100.00;99586.19;5112579;28;20191;-79
2022/06/02 02:42:31;;;;;;;7.93;5.93;;;;;;;11.15;100.00;99580.78;5112362;28;20626;-78
2022/06/02 02:45:09;;;;;;;6.95;6.25;;;;;;;11.08;100.00;99584.81;5112553;28;20294;-79
2022/06/02 02:47:45;;;;;;;6.18;5.60;;;;;;;11.14;100.00;99580.84;5112482;28;20689;-78
2022/06/02 02:50:20;;;;;;;8.70;6.03;;;;;;;11.19;100.00;99586.81;5112010;28;20223;-79
2022/06/02 02:52:56;;;;;;;7.53;6.32;;;;;;;11.18;100.00;99585.09;5112076;28;20186;-79
2022/06/02 02:55:29;;;;;;;6.53;5.80;;;;;;;11.06;100.00;99590.28;5112527;28;20205;-79
2022/06/02 02:58:03;;;;;;;6.80;5.13;;;;;;;11.10;100.00;99587.38;5112034;28;20207;-79
2022/06/02 03:00:34;;;;;;;7.70;5.65;;;;;;;10.96;100.00;99597.16;5112368;28;20180;-79
2022/06/02 03:03:07;;;;;;;6.28;5.65;;;;;;;10.91;100.00;99587.63;5112402;28;20183;-79
2022/06/02 03:05:52;;;;;;;6.15;5.55;;;;;;;10.88;100.00;99586.00;5111858;28;20179;-79
2022/06/02 03:08:28;;;;;;;6.40;5.80;;;;;;;10.78;100.00;99588.34;5112249;28;20186;-78
2022/06/02 03:11:02;;;;;;;6.70;5.43;;;;;;;10.71;100.00;99588.81;5111803;28;20194;-79
2022/06/02 03:13:34;;;;;;;7.32;6.32;;;;;;;10.78;100.00;99585.66;5112107;28;20194;-79
2022/06/02 03:16:06;;;;;;;11.15;6.68;;;;;;;10.90;100.00;99592.16;5112131;28;20241;-79
2022/06/02 03:18:47;;;;;;;7.10;6.43;;;;;;;10.92;100.00;99594.75;5112191;28;20234;-79
2022/06/02 03:21:26;;;;;;;8.52;6.35;;;;;;;10.98;100.00;99597.09;5111903;28;20194;-79
2022/06/02 03:24:22;;;;;;;9.90;7.25;;;;;;;10.96;100.00;99602.56;5112047;28;20191;-78
2022/06/02 03:26:58;;;;;;;8.00;6.72;;;;;;;10.89;100.00;99603.88;5111537;28;20209;-79
2022/06/02 03:29:38;;;;;;;7.60;6.70;;;;;;;10.79;100.00;99600.00;5111767;28;20190;-79
2022/06/02 03:32:18;;;;;;;9.30;6.95;;;;;;;10.67;100.00;99592.63;5110822;28;20557;-79
2022/06/02 03:34:56;;;;;;;7.78;6.97;;;;;;;10.68;100.00;99597.09;5111774;28;20287;-80
2022/06/02 03:37:41;;;;;;;8.32;7.20;;;;;;;10.73;100.00;99597.66;5111089;28;20217;-79
2022/06/02 03:40:18;;;;;;;7.88;7.07;;;;;;;10.73;100.00;99594.97;5115746;28;20207;-79
2022/06/02 03:42:53;;;;;;;8.07;7.22;;;;;;;10.70;100.00;99597.88;5115934;28;20283;-79
2022/06/02 03:45:30;;;;;;;8.30;6.60;;;;;;;10.68;100.00;99600.63;5115754;28;20236;-79
2022/06/02 03:48:10;;;;;;;9.65;8.45;;;;;;;10.59;100.00;99604.72;5115749;28;20194;-79
2022/06/02 03:50:52;;;;;;;10.18;7.68;;;;;;;10.66;100.00;99605.25;5114863;28;21736;-79
2022/06/02 03:53:44;;;;;;;8.18;7.30;;;;;;;10.87;100.00;99605.78;5116049;28;20252;-78
2022/06/02 03:56:35;;;;;;;8.13;7.40;;;;;;;10.84;100.00;99595.22;5115634;28;20641;-79
2022/06/02 03:59:16;;;;;;;8.25;7.45;;;;;;;10.92;100.00;99603.72;5115965;28;20302;-78
2022/06/02 04:01:53;;;;;;;8.05;7.25;;;;;;;10.90;100.00;99600.25;5115592;28;20542;-79
2022/06/02 04:04:31;;;;;;;7.97;6.18;;;;;;;10.77;100.00;99601.94;5115356;28;20183;-78
2022/06/02 04:07:11;;;;;;;7.72;6.68;;;;;;;10.80;100.00;99602.59;5115732;28;20234;-78
2022/06/02 04:09:49;;;;;;;8.52;7.63;;;;;;;10.75;100.00;99611.91;5122973;28;20290;-85
2022/06/02 04:15:37;;;;;;;11.02;8.93;;;;;;;10.87;100.00;99595.03;5080468;28;20673;-85
2022/06/02 04:18:16;;;;;;;8.10;7.30;;;;;;;10.75;100.00;99603.84;5115396;28;20191;-84
2022/06/02 04:20:58;;;;;;;7.57;6.88;;;;;;;10.78;100.00;99600.94;5115255;28;20179;-85
2022/06/02 04:23:47;;;;;;;8.50;7.68;;;;;;;10.83;100.00;99606.94;5115148;28;20183;-88
2022/06/02 04:26:45;;;;;;;8.93;7.95;;;;;;;10.92;100.00;99609.09;5115693;28;20191;-88
2022/06/02 04:29:34;;;;;;;10.57;7.45;;;;;;;10.93;100.00;99610.81;5115819;28;20248;-86
2022/06/02 04:32:15;;;;;;;12.15;7.47;;;;;;;11.20;100.00;99604.75;5095326;28;20188;-88
2022/06/02 04:34:54;;;;;;;12.88;9.30;;;;;;;11.22;100.00;99621.69;5095109;28;20215;-90
2022/06/02 04:37:31;;;;;;;7.60;6.80;;;;;;;11.09;100.00;99618.00;5094883;28;20206;-88
2022/06/02 04:40:17;;;;;;;8.82;6.85;;;;;;;11.05;100.00;99611.91;5095245;28;20691;-88
2022/06/02 04:42:55;;;;;;;9.38;8.15;;;;;;;11.22;100.00;99610.91;5106613;28;20206;-88
2022/06/02 04:45:29;;;;;;;9.10;8.20;;;;;;;11.47;100.00;99619.22;5117046;28;20625;-87
2022/06/02 04:48:04;;;;;;;9.32;8.30;;;;;;;11.74;100.00;99626.56;5115504;28;20230;-87
2022/06/02 04:50:39;;;;;;;12.50;9.02;;;;;;;11.92;100.00;99629.09;5113595;28;20223;-88
2022/06/02 04:53:15;;;;;;;11.68;8.98;;;;;;;12.12;100.00;99631.41;5115709;28;20190;-88
2022/06/02 04:55:54;;;;;;;17.17;9.27;;;;;;;12.31;100.00;99628.38;5114970;28;20189;-88
2022/06/02 04:58:30;;;;;;;9.40;8.45;;;;;;;12.49;100.00;99632.59;5105982;27;20191;-85
2022/06/02 05:01:04;;;;;;;13.98;10.80;;;;;;;12.59;100.00;99624.75;5114025;28;20278;-84
2022/06/02 05:03:39;;;;;;;11.02;9.00;;;;;;;12.65;100.00;99618.94;5113839;28;20251;-84
2022/06/02 05:06:12;;;;;;;11.25;8.30;;;;;;;12.55;100.00;99625.03;5113912;28;20235;-85
2022/06/02 05:08:59;;;;;;;10.63;8.45;;;;;;;12.72;100.00;99625.66;5114254;28;20628;-84
2022/06/02 05:11:37;;;;;;;10.63;9.15;;;;;;;12.90;100.00;99634.38;5113442;28;20176;-85
2022/06/02 05:14:18;;;;;;;9.88;8.88;;;;;;;13.02;98.65;99637.22;5113456;28;20589;-84
2022/06/02 05:16:51;;;;;;;10.48;9.40;;;;;;;13.05;98.28;99640.59;5113285;28;20223;-84
2022/06/02 05:19:37;;;;;;;10.18;8.60;;;;;;;12.90;97.78;99633.50;5113033;28;20216;-85
2022/06/02 05:22:21;;;;;;;15.10;10.02;;;;;;;13.02;99.10;99632.66;5114106;28;20697;-84
2022/06/02 05:25:12;;;;;;;10.55;9.27;;;;;;;12.87;98.36;99636.44;5113172;28;20609;-84
2022/06/02 05:28:05;;;;;;;11.30;8.73;;;;;;;13.12;97.83;99639.19;5113682;28;20274;-85
2022/06/02 05:30:57;;;;;;;13.60;9.18;;;;;;;13.14;96.68;99637.25;5117648;27;20267;-84
2022/06/02 05:33:43;;;;;;;12.90;8.68;;;;;;;13.38;94.57;99633.88;5093139;28;20188;-84
2022/06/02 05:36:30;;;;;;;14.95;8.85;;;;;;;13.61;93.09;99634.97;5093419;28;20187;-84
2022/06/02 05:39:23;;;;;;;9.30;8.05;;;;;;;13.60;92.40;99638.66;5093781;28;20204;-83
2022/06/02 05:42:04;;;;;;;10.38;9.23;;;;;;;13.75;90.97;99650.25;5100338;28;20192;-83
2022/06/02 05:44:47;;;;;;;12.35;9.13;;;;;;;14.01;88.83;99658.34;5106945;28;20199;-84
2022/06/02 05:47:30;;;;;;;11.68;9.48;;;;;;;14.32;85.75;99657.88;5115098;28;20248;-85
2022/06/02 05:50:07;;;;;;;10.60;9.50;;;;;;;14.39;83.91;99647.47;5114044;28;20304;-84
2022/06/02 05:52:47;;;;;;;10.38;8.10;;;;;;;13.94;88.66;99652.50;5113710;28;20230;-84
2022/06/02 05:55:27;;;;;;;10.00;9.00;;;;;;;14.13;86.18;99643.91;5114139;28;20608;-85
2022/06/02 05:58:10;;;;;;;11.38;8.70;;;;;;;14.28;83.89;99639.25;5113505;28;20284;-84
2022/06/02 06:00:45;;;;;;;11.25;9.55;;;;;;;14.19;85.20;99638.94;5112438;28;20300;-84
2022/06/02 06:03:49;;;;;;;11.43;9.65;;;;;;;14.33;83.34;99632.50;5113169;28;20228;-83
2022/06/02 06:06:29;;;;;;;12.98;9.02;;;;;;;14.14;84.30;99640.25;5112975;28;20196;-85
2022/06/02 06:09:09;;;;;;;13.63;10.40;;;;;;;14.54;81.83;99646.38;5113209;28;20200;-84
2022/06/02 06:12:13;;;;;;;12.23;9.32;;;;;;;14.52;81.61;99644.72;5113286;28;20180;-85
2022/06/02 06:14:49;;;;;;;10.98;9.90;;;;;;;14.57;80.06;99653.41;5113930;28;20531;-84
2022/06/02 06:17:26;;;;;;;16.65;9.40;;;;;;;14.29;80.89;99649.97;5113180;28;20246;-83
2022/06/02 06:20:06;;;;;;;12.50;9.65;;;;;;;14.56;79.81;99655.25;5112890;28;20223;-84
2022/06/02 06:22:48;;;;;;;10.85;9.07;;;;;;;14.60;78.94;99667.56;5112843;28;20250;-83
2022/06/02 06:25:36;;;;;;;11.45;8.55;;;;;;;14.78;78.08;99656.34;5113138;28;20662;-85
2022/06/02 06:28:13;;;;;;;12.38;9.20;;;;;;;14.95;76.24;99663.25;5096245;28;20217;-84
2022/06/02 06:30:57;;;;;;;11.13;10.10;;;;;;;15.29;74.58;99666.09;5112513;28;20196;-84
2022/06/02 06:33:42;;;;;;;9.73;8.73;;;;;;;15.22;74.25;99658.44;5112640;28;20632;-84
2022/06/02 06:36:25;;;;;;;12.65;8.68;;;;;;;15.80;71.25;99658.47;5112874;28;20183;-85
2022/06/02 06:39:04;;;;;;;10.82;8.60;;;;;;;16.19;68.35;99653.59;5112526;28;20241;-85
2022/06/02 06:41:45;;;;;;;7.65;6.95;;;;;;;16.33;66.87;99641.59;5112348;28;20275;-85
2022/06/02 06:44:21;;;;;;;7.88;7.07;;;;;;;16.38;65.34;99658.38;5112439;28;20179;-85
2022/06/02 06:46:55;;;;;;;8.43;7.60;;;;;;;16.59;63.66;99660.34;5112277;28;20461;-85
2022/06/02 06:49:34;;;;;;;7.35;6.63;;;;;;;16.53;63.65;99658.09;5111961;28;20206;-84
2022/06/02 06:52:19;;;;;;;12.07;8.48;;;;;;;16.68;62.60;99654.13;5112032;28;20612;-84
2022/06/02 06:54:56;;;;;;;9.57;6.80;;;;;;;16.70;62.59;99652.16;5111790;28;20188;-84
2022/06/02 06:57:33;;;;;;;8.25;7.38;;;;;;;16.57;62.80;99651.44;5112188;28;20535;-84
2022/06/02 07:00:05;;;;;;;7.78;7.03;;;;;;;16.55;62.13;99643.44;5112050;28;20668;-84
2022/06/02 07:02:44;;;;;;;7.38;5.88;;;;;;;16.02;64.76;99638.63;5112016;28;20186;-83
2022/06/02 07:05:17;;;;;;;7.47;6.75;;;;;;;15.99;64.71;99640.75;5111666;28;20266;-83
2022/06/02 07:07:58;;;;;;;12.27;7.95;;;;;;;16.63;62.63;99635.50;5111882;28;20183;-84
2022/06/02 07:10:34;;;;;;;7.30;6.13;;;;;;;17.12;60.73;99637.84;5111749;28;20199;-84
2022/06/02 07:13:10;;;;;;;5.93;5.35;;;;;;;17.28;59.45;99636.41;5114301;28;20194;-84
2022/06/02 07:15:47;;;;;;;6.70;6.10;;;;;;;17.41;58.79;99646.22;5115969;28;20187;-85
2022/06/02 07:18:27;;;;;;;6.53;5.93;;;;;;;17.49;57.92;99639.13;5115705;28;20187;-85
2022/06/02 07:21:01;;;;;;;6.78;6.18;;;;;;;16.91;59.42;99632.34;5115638;28;20209;-84
2022/06/02 07:23:51;;;;;;;6.70;6.00;;;;;;;16.76;59.71;99642.66;5115368;28;20232;-84
2022/06/02 07:26:32;;;;;;;6.32;5.80;;;;;;;16.98;59.29;99631.72;5115345;28;20215;-84
2022/06/02 07:29:06;;;;;;;6.90;6.28;;;;;;;17.50;57.67;99638.16;5115475;28;20183;-84
2022/06/02 07:31:56;;;;;;;15.23;7.70;;;;;;;17.52;57.06;99648.91;5115393;28;20662;-84
2022/06/02 07:34:44;;;;;;;7.05;5.03;;;;;;;17.54;56.76;99648.78;5115527;28;20191;-84
2022/06/02 07:37:29;;;;;;;7.57;5.28;;;;;;;17.61;55.76;99648.09;5115409;28;20270;-85
2022/06/02 07:40:13;;;;;;;7.28;5.47;;;;;;;17.66;56.06;99654.03;5115344;28;20484;-84
2022/06/02 07:43:05;;;;;;;6.35;5.00;;;;;;;18.38;54.38;99654.13;5115346;28;20229;-83
2022/06/02 07:45:37;;;;;;;6.20;5.28;;;;;;;18.92;52.40;99651.00;5101681;28;20199;-85
2022/06/02 07:48:26;;;;;;;5.15;4.68;;;;;;;18.86;50.86;99645.25;5115042;28;20607;-84
2022/06/02 07:51:04;;;;;;;4.43;4.10;;;;;;;19.25;49.69;99646.16;5114702;28;20229;-85
2022/06/02 07:53:40;;;;;;;5.50;5.00;;;;;;;19.37;49.75;99647.72;5115260;28;20194;-85
2022/06/02 07:56:18;;;;;;;5.70;5.05;;;;;;;20.00;47.63;99643.63;5114955;28;20190;-85
2022/06/02 07:58:57;;;;;;;4.88;4.35;;;;;;;19.77;47.46;99638.50;5115150;28;20264;-84
2022/06/02 08:01:50;;;;;;;5.07;3.67;;;;;;;19.84;47.10;99640.66;5114732;28;20297;-84
2022/06/02 08:04:23;;;;;;;5.70;4.38;;;;;;;19.64;47.62;99632.44;5114897;28;20241;-84
2022/06/02 08:06:57;;;;;;;6.60;4.85;;;;;;;19.97;46.72;99633.84;5114786;28;20194;-84
2022/06/02 08:09:48;;;;;;;5.32;3.60;;;;;;;19.36;47.49;99636.97;5114659;28;20223;-84
2022/06/02 08:12:27;;;;;;;3.35;3.05;;;;;;;18.99;48.19;99639.53;5114754;28;20196;-84
2022/06/02 08:15:07;;;;;;;3.30;3.00;;;;;;;19.65;46.42;99639.66;5114579;28;20182;-85
2022/06/02 08:17:38;;;;;;;3.42;3.13;;;;;;;19.66;46.62;99649.56;5114994;28;20539;-85
2022/06/02 08:20:34;;;;;;;5.70;4.05;;;;;;;19.86;46.80;99639.50;5114694;28;20619;-85
2022/06/02 08:23:12;;;;;;;4.05;3.70;;;;;;;20.38;44.51;99641.75;5114678;28;20194;-85
2022/06/02 08:25:47;;;;;;;3.63;3.30;;;;;;;20.04;45.08;99642.31;5114001;28;20186;-85
2022/06/02 08:28:32;;;;;;;4.33;2.80;;;;;;;20.82;44.44;99634.59;5114749;28;20537;-84
2022/06/02 08:31:08;;;;;;;3.63;2.90;;;;;;;21.07;42.02;99637.59;5114387;28;20587;-85
2022/06/02 08:33:43;;;;;;;4.67;3.90;;;;;;;21.35;40.75;99638.41;5114576;28;20425;-85
2022/06/02 08:36:13;;;;;;;3.60;2.83;;;;;;;21.40;41.15;99632.44;5114495;28;20429;-85
2022/06/02 08:38:55;;;;;;;6.50;3.20;;;;;;;21.23;42.00;99637.78;5114939;28;20425;-84
2022/06/02 08:42:07;;;;;;;3.03;2.73;;;;;;;21.24;40.82;99631.28;5115198;28;20479;-85
2022/06/02 08:45:01;;;;;;;4.57;3.17;;;;;;;21.09;41.56;99634.72;5114511;28;20413;-85
2022/06/02 08:48:14;;;;;;;3.57;3.00;;;;;;;20.31;43.94;99626.97;5114439;28;20440;-85
2022/06/02 08:51:19;;;;;;;3.50;2.97;;;;;;;20.92;42.72;99631.81;5114065;28;20504;-85
2022/06/02 08:54:24;;;;;;;3.20;2.90;;;;;;;21.43;41.78;99630.25;5114382;28;20917;-85
2022/06/02 08:57:20;;;;;;;4.83;3.50;;;;;;;20.97;41.07;99629.47;5114192;28;20429;-85
2022/06/02 09:00:24;;;;;;;2.87;2.57;;;;;;;20.78;40.69;99632.34;5114349;28;20472;-85
2022/06/02 09:03:27;;;;;;;3.73;2.60;;;;;;;20.77;41.01;99633.34;5114125;28;20429;-86
2022/06/02 09:06:23;;;;;;;2.63;2.40;;;;;;;20.52;41.12;99638.50;5114150;28;21065;-84
2022/06/02 09:09:22;;;;;;;2.80;2.20;;;;;;;20.88;41.01;99633.16;5114085;28;20429;-86
2022/06/02 09:12:10;;;;;;;3.00;2.67;;;;;;;20.86;40.92;99632.44;5101053;28;20935;-85
2022/06/02 09:15:17;;;;;;;3.10;2.57;;;;;;;20.33;42.53;99628.53;5114225;28;20994;-86
2022/06/02 09:18:06;;;;;;;3.10;2.80;;;;;;;21.33;41.55;99621.25;5088271;28;20536;-85
2022/06/02 09:20:47;;;;;;;5.03;2.90;;;;;;;21.04;40.71;99619.63;5114026;28;20476;-86
2022/06/02 09:23:47;;;;;;;3.10;2.60;;;;;;;21.18;40.86;99620.94;5115068;28;20941;-86
2022/06/02 09:26:30;;;;;;;3.37;2.80;;;;;;;21.22;40.81;99618.75;5113664;28;20451;-86
2022/06/02 09:29:19;;;;;;;5.50;3.00;;;;;;;21.20;41.36;99635.34;5110981;28;20777;-85
2022/06/02 09:32:10;;;;;;;3.73;2.87;;;;;;;21.36;41.09;99631.03;5114083;28;20421;-85
2022/06/02 09:34:55;;;;;;;3.73;2.57;;;;;;;21.58;40.59;99616.88;5113696;28;20443;-86
2022/06/02 09:37:51;;;;;;;4.07;2.93;;;;;;;21.59;40.46;99628.69;5113549;28;20436;-85
2022/06/02 09:40:40;;;;;;;4.37;3.00;;;;;;;20.78;41.80;99630.47;5102150;28;20487;-86
2022/06/02 09:43:36;;;;;;;4.87;3.30;;;;;;;21.23;41.07;99628.69;5113309;28;20429;-85
2022/06/02 09:46:19;;;;;;;2.80;2.10;;;;;;;21.39;40.86;99628.84;5113634;28;20425;-85
2022/06/02 09:49:02;;;;;;;3.57;2.33;;;;;;;21.89;39.89;99630.13;5113316;28;20425;-85
2022/06/02 09:51:53;;;;;;;4.60;2.60;;;;;;;21.81;39.68;99630.91;5115003;28;20466;-85
2022/06/02 09:54:44;;;;;;;4.53;4.13;;;;;;;21.77;39.46;99631.38;5112929;28;20429;-85
2022/06/02 09:57:59;;;;;;;4.93;2.70;;;;;;;21.56;39.98;99629.88;5112432;28;20432;-85
2022/06/02 10:01:03;;;;;;;3.27;2.90;;;;;;;21.42;40.50;99623.09;5112951;28;20473;-85
2022/06/02 10:03:46;;;;;;;4.07;3.70;;;;;;;22.00;39.59;99629.84;5112893;28;20429;-85
2022/06/02 10:06:30;;;;;;;4.57;2.67;;;;;;;22.83;37.83;99634.69;5112529;28;20440;-85
2022/06/02 10:09:13;;;;;;;3.50;2.63;;;;;;;22.91;37.50;99620.13;5111577;27;20467;-85
2022/06/02 10:11:47;;;;;;;3.10;2.80;;;;;;;22.82;37.44;99621.16;5112877;28;20792;-85
2022/06/02 10:14:41;;;;;;;2.70;2.50;;;;;;;22.62;38.25;99635.13;5112882;28;20782;-85
2022/06/02 10:17:44;;;;;;;3.30;2.30;;;;;;;23.10;37.45;99644.56;5112354;28;20442;-85
2022/06/02 10:20:22;;;;;;;3.70;2.63;;;;;;;23.21;36.93;99639.78;5113163;28;21043;-86
2022/06/02 10:22:59;;;;;;;4.50;2.47;;;;;;;23.64;36.46;99637.75;5112035;28;20437;-86
2022/06/02 10:25:47;;;;;;;4.10;3.23;;;;;;;22.72;37.93;99631.41;5112325;28;20421;-86
2022/06/02 10:29:01;;;;;;;4.13;2.50;;;;;;;22.89;37.03;99635.91;5112399;28;20975;-84
2022/06/02 10:32:07;;;;;;;7.00;3.60;;;;;;;22.97;37.71;99640.56;5112282;28;20421;-85
2022/06/02 10:35:06;;;;;;;2.70;2.50;;;;;;;22.13;39.39;99632.13;5112504;28;20898;-85
2022/06/02 10:37:58;;;;;;;5.10;3.00;;;;;;;22.83;38.24;99633.84;5112391;28;20784;-86
2022/06/02 10:40:47;;;;;;;4.40;2.60;;;;;;;22.42;38.95;99622.72;5112123;28;20810;-86
2022/06/02 10:44:07;;;;;;;3.07;2.60;;;;;;;22.51;39.60;99623.63;5112127;28;20437;-86
2022/06/02 10:47:06;;;;;;;4.47;2.60;;;;;;;23.38;38.13;99616.81;5028871;28;20859;-85
2022/06/02 10:49:44;;;;;;;5.17;3.00;;;;;;;23.63;36.93;99623.16;5029239;28;20526;-83
2022/06/02 10:52:46;;;;;;;3.30;3.00;;;;;;;23.44;37.04;99623.47;5101386;28;20441;-85
2022/06/02 10:55:47;;;;;;;2.80;2.60;;;;;;;23.11;37.95;99620.72;5112108;28;20421;-86
2022/06/02 10:58:50;;;;;;;2.63;2.43;;;;;;;22.97;38.32;99618.59;5086594;28;20448;-85
2022/06/02 11:01:41;;;;;;;2.53;2.33;;;;;;;22.38;39.11;99618.56;5111125;28;20480;-85
2022/06/02 11:04:49;;;;;;;3.60;3.30;;;;;;;23.04;38.65;99612.31;5112325;28;20910;-85
2022/06/02 11:07:46;;;;;;;3.57;3.13;;;;;;;23.86;37.14;99617.81;5072969;28;20445;-86
2022/06/02 11:10:38;;;;;;;2.60;2.40;;;;;;;24.11;36.28;99621.38;5107584;28;20798;-86
2022/06/02 11:13:40;;;;;;;3.40;2.17;;;;;;;24.17;35.57;99617.03;5106319;28;20438;-85
2022/06/02 11:16:48;;;;;;;3.30;2.80;;;;;;;24.43;35.38;99621.44;5085874;28;20436;-86
2022/06/02 11:20:10;;;;;;;2.93;2.60;;;;;;;23.59;36.73;99616.28;5112466;28;20949;-86
2022/06/02 11:23:20;;;;;;;2.50;2.30;;;;;;;22.90;38.14;99601.94;5034585;28;20437;-87
2022/06/02 11:26:22;;;;;;;3.70;2.20;;;;;;;22.98;38.40;99596.47;5091379;28;20422;-87
2022/06/02 11:29:12;;;;;;;4.93;2.50;;;;;;;22.38;38.86;99589.25;5091113;28;20461;-87
2022/06/02 11:32:22;;;;;;;2.60;2.40;;;;;;;22.44;39.29;99591.34;5109430;28;20429;-86
2022/06/02 11:35:13;;;;;;;5.37;3.57;;;;;;;23.13;38.42;99582.94;5091111;28;20474;-87
2022/06/02 11:38:11;;;;;;;3.93;3.00;;;;;;;22.66;39.02;99581.66;5112136;28;20443;-87
2022/06/02 11:40:51;;;;;;;8.00;7.20;;;;;;;22.79;38.49;99583.03;5080272;28;20488;-86
2022/06/02 11:43:24;;;;;;;3.93;2.90;;;;;;;22.53;38.81;99584.00;5091683;28;20437;-86
2022/06/02 11:46:33;;;;;;;2.67;2.33;;;;;;;21.97;39.72;99582.69;5097097;28;20453;-87
2022/06/02 11:49:42;;;;;;;2.50;2.30;;;;;;;22.36;39.64;99574.84;5049431;28;20439;-86
2022/06/02 11:52:39;;;;;;;4.23;2.17;;;;;;;22.40;39.92;99569.91;5062128;28;21030;-86
2022/06/02 11:55:34;;;;;;;2.53;2.33;;;;;;;22.31;40.21;99569.00;5112018;28;20508;-85
2022/06/02 11:58:31;;;;;;;2.37;2.13;;;;;;;21.79;40.79;99556.22;5044995;28;20830;-84
2022/06/02 12:01:18;;;;;;;2.83;2.50;;;;;;;21.98;40.82;99551.50;5072463;27;20482;-84
2022/06/02 12:04:24;;;;;;;3.20;2.90;;;;;;;22.55;39.07;99565.50;5114716;28;20883;-85
2022/06/02 12:07:35;;;;;;;2.53;2.33;;;;;;;22.48;39.47;99559.81;5112846;28;20440;-85
2022/06/02 12:10:46;;;;;;;2.80;2.40;;;;;;;22.02;40.71;99559.25;5074962;28;20449;-87
2022/06/02 12:13:37;;;;;;;3.23;2.93;;;;;;;22.58;39.64;99556.06;5116112;28;20433;-87
2022/06/02 12:16:29;;;;;;;5.00;3.57;;;;;;;22.97;38.79;99552.69;5116071;28;20425;-88
2022/06/02 12:19:14;;;;;;;3.20;2.40;;;;;;;22.67;38.96;99555.06;5116190;28;20481;-87
2022/06/02 12:21:55;;;;;;;3.00;2.20;;;;;;;22.27;40.18;99554.78;5118453;28;20467;-87
2022/06/02 12:24:50;;;;;;;5.70;2.87;;;;;;;22.88;38.89;99552.72;5116495;28;20429;-88
2022/06/02 12:27:58;;;;;;;4.33;2.40;;;;;;;22.36;40.06;99552.06;5116398;28;20429;-87
2022/06/02 12:30:38;;;;;;;2.93;2.63;;;;;;;22.14;40.70;99551.59;5110503;28;20459;-88
2022/06/02 12:33:23;;;;;;;4.37;2.70;;;;;;;22.40;40.93;99547.94;5112290;28;20430;-87
2022/06/02 12:36:07;;;;;;;3.30;2.70;;;;;;;22.88;39.48;99541.72;5112691;28;20433;-87
2022/06/02 12:39:09;;;;;;;2.50;2.30;;;;;;;22.81;39.61;99540.66;5095696;28;20552;-87
2022/06/02 12:41:55;;;;;;;4.00;2.80;;;;;;;23.46;38.61;99542.59;5095226;28;20583;-86
2022/06/02 12:45:02;;;;;;;3.90;2.57;;;;;;;24.49;36.82;99538.19;5108464;28;20445;-88
2022/06/02 12:48:12;;;;;;;3.53;3.23;;;;;;;24.73;35.93;99532.53;5116592;28;20429;-87
2022/06/02 12:51:01;;;;;;;2.47;2.27;;;;;;;24.90;36.00;99535.19;5094504;28;20825;-88
2022/06/02 12:54:10;;;;;;;3.63;2.10;;;;;;;24.75;36.05;99538.72;5103328;28;20520;-85
2022/06/02 12:57:09;;;;;;;6.57;4.20;;;;;;;25.43;34.96;99529.78;5094944;28;20440;-89